sensor_id;sensor_type;location;lat;lon;timestamp;temperature;humidity
22558;DHT22;11445;53.816;8.902;2024-03-02T00:01:06;7.00;99.90
22558;DHT22;11445;53.816;8.902;2024-03-02T00:03:34;7.00;99.90
22558;DHT22;11445;53.816;8.902;2024-03-02T00:06:03;7.00;99.90
22558;DHT22;11445;53.816;8.902;2024-03-02T00:08:30;6.90;99.90
22558;DHT22;11445;53.816;8.902;2024-03-02T00:10:58;6.90;99.90
22558;DHT22;11445;53.816;8.902;2024-03-02T00:13:25;6.90;99.90
22558;DHT22;11445;53.816;8.902;2024-03-02T00:15:53;6.90;99.90
22558;DHT22;11445;53.816;8.902;2024-03-02T00:18:24;6.90;99.90
22558;DHT22;11445;53.816;8.902;2024-03-02T00:23:30;6.90;99.90
22558;DHT22;11445;53.816;8.902;2024-03-02T00:25:57;6.80;99.90
22558;DHT22;11445;53.816;8.902;2024-03-02T00:28:26;6.80;99.90
22558;DHT22;11445;53.816;8.902;2024-03-02T00:30:58;6.80;99.90
22558;DHT22;11445;53.816;8.902;2024-03-02T00:33:27;6.80;99.90
22558;DHT22;11445;53.816;8.902;2024-03-02T00:35:54;6.70;99.90
22558;DHT22;11445;53.816;8.902;2024-03-02T00:38:21;6.70;99.90
22558;DHT22;11445;53.816;8.902;2024-03-02T00:40:50;6.70;99.90
22558;DHT22;11445;53.816;8.902;2024-03-02T00:43:45;6.70;99.90
22558;DHT22;11445;53.816;8.902;2024-03-02T00:46:16;6.60;99.90
22558;DHT22;11445;53.816;8.902;2024-03-02T00:48:51;6.60;99.90
22558;DHT22;11445;53.816;8.902;2024-03-02T00:51:18;6.60;99.90
22558;DHT22;11445;53.816;8.902;2024-03-02T00:53:45;6.60;99.90
22558;DHT22;11445;53.816;8.902;2024-03-02T00:56:13;6.60;99.90
22558;DHT22;11445;53.816;8.902;2024-03-02T00:58:40;6.60;99.90
22558;DHT22;11445;53.816;8.902;2024-03-02T01:01:07;6.60;99.90
22558;DHT22;11445;53.816;8.902;2024-03-02T01:03:35;6.60;99.90
22558;DHT22;11445;53.816;8.902;2024-03-02T01:06:03;6.60;99.90
22558;DHT22;11445;53.816;8.902;2024-03-02T01:08:30;6.60;99.90
22558;DHT22;11445;53.816;8.902;2024-03-02T01:10:57;6.60;99.90
22558;DHT22;11445;53.816;8.902;2024-03-02T01:13:26;6.50;99.90
22558;DHT22;11445;53.816;8.902;2024-03-02T01:15:53;6.50;99.90
22558;DHT22;11445;53.816;8.902;2024-03-02T01:18:20;6.50;99.90
22558;DHT22;11445;53.816;8.902;2024-03-02T01:20:47;6.50;99.90
22558;DHT22;11445;53.816;8.902;2024-03-02T01:23:17;6.50;99.90
22558;DHT22;11445;53.816;8.902;2024-03-02T01:25:45;6.50;99.90
22558;DHT22;11445;53.816;8.902;2024-03-02T01:28:12;6.50;99.90
22558;DHT22;11445;53.816;8.902;2024-03-02T01:30:40;6.50;99.90
22558;DHT22;11445;53.816;8.902;2024-03-02T01:33:07;6.50;99.90
22558;DHT22;11445;53.816;8.902;2024-03-02T01:35:35;6.50;99.90
22558;DHT22;11445;53.816;8.902;2024-03-02T01:38:03;6.50;99.90
22558;DHT22;11445;53.816;8.902;2024-03-02T01:40:31;6.50;99.90
22558;DHT22;11445;53.816;8.902;2024-03-02T01:42:58;6.50;99.90
22558;DHT22;11445;53.816;8.902;2024-03-02T01:45:25;6.50;99.90
22558;DHT22;11445;53.816;8.902;2024-03-02T01:47:53;6.50;99.90
22558;DHT22;11445;53.816;8.902;2024-03-02T01:50:27;6.50;99.90
22558;DHT22;11445;53.816;8.902;2024-03-02T01:52:55;6.50;99.90
22558;DHT22;11445;53.816;8.902;2024-03-02T01:55:22;6.50;99.90
22558;DHT22;11445;53.816;8.902;2024-03-02T01:57:49;6.50;99.90
22558;DHT22;11445;53.816;8.902;2024-03-02T02:00:18;6.50;99.90
22558;DHT22;11445;53.816;8.902;2024-03-02T02:02:44;6.40;99.90
22558;DHT22;11445;53.816;8.902;2024-03-02T02:05:13;6.50;99.90
22558;DHT22;11445;53.816;8.902;2024-03-02T02:07:40;6.50;99.90
22558;DHT22;11445;53.816;8.902;2024-03-02T02:10:08;6.40;99.90
22558;DHT22;11445;53.816;8.902;2024-03-02T02:12:35;6.40;99.90
22558;DHT22;11445;53.816;8.902;2024-03-02T02:15:02;6.40;99.90
22558;DHT22;11445;53.816;8.902;2024-03-02T02:17:29;6.40;99.90
22558;DHT22;11445;53.816;8.902;2024-03-02T02:19:56;6.40;99.90
22558;DHT22;11445;53.816;8.902;2024-03-02T02:22:24;6.40;99.90
22558;DHT22;11445;53.816;8.902;2024-03-02T02:24:51;6.40;99.90
22558;DHT22;11445;53.816;8.902;2024-03-02T02:27:18;6.40;99.90
22558;DHT22;11445;53.816;8.902;2024-03-02T02:29:45;6.40;99.90
22558;DHT22;11445;53.816;8.902;2024-03-02T02:32:12;6.40;99.90
22558;DHT22;11445;53.816;8.902;2024-03-02T02:34:38;6.40;99.90
22558;DHT22;11445;53.816;8.902;2024-03-02T02:37:05;6.40;99.90
22558;DHT22;11445;53.816;8.902;2024-03-02T02:39:33;6.30;99.90
22558;DHT22;11445;53.816;8.902;2024-03-02T02:42:00;6.30;99.90
22558;DHT22;11445;53.816;8.902;2024-03-02T02:44:28;6.30;99.90
22558;DHT22;11445;53.816;8.902;2024-03-02T02:46:55;6.30;99.90
22558;DHT22;11445;53.816;8.902;2024-03-02T02:49:21;6.30;99.90
22558;DHT22;11445;53.816;8.902;2024-03-02T02:51:48;6.30;99.90
22558;DHT22;11445;53.816;8.902;2024-03-02T02:54:15;6.30;99.90
22558;DHT22;11445;53.816;8.902;2024-03-02T02:56:43;6.20;99.90
22558;DHT22;11445;53.816;8.902;2024-03-02T02:59:10;6.20;99.90
22558;DHT22;11445;53.816;8.902;2024-03-02T03:01:37;6.20;99.90
22558;DHT22;11445;53.816;8.902;2024-03-02T03:04:04;6.20;99.90
22558;DHT22;11445;53.816;8.902;2024-03-02T03:06:31;6.20;99.90
22558;DHT22;11445;53.816;8.902;2024-03-02T03:08:57;6.10;99.90
22558;DHT22;11445;53.816;8.902;2024-03-02T03:11:24;6.10;99.90
22558;DHT22;11445;53.816;8.902;2024-03-02T03:13:53;6.10;99.90
22558;DHT22;11445;53.816;8.902;2024-03-02T03:16:21;6.10;99.90
22558;DHT22;11445;53.816;8.902;2024-03-02T03:18:48;6.10;99.90
22558;DHT22;11445;53.816;8.902;2024-03-02T03:21:17;6.10;99.90
22558;DHT22;11445;53.816;8.902;2024-03-02T03:23:43;6.00;99.90
22558;DHT22;11445;53.816;8.902;2024-03-02T03:26:10;6.00;99.90
22558;DHT22;11445;53.816;8.902;2024-03-02T03:28:37;5.90;99.90
22558;DHT22;11445;53.816;8.902;2024-03-02T03:31:05;5.90;99.90
22558;DHT22;11445;53.816;8.902;2024-03-02T03:33:32;5.90;99.90
22558;DHT22;11445;53.816;8.902;2024-03-02T03:36:00;5.90;99.90
22558;DHT22;11445;53.816;8.902;2024-03-02T03:38:28;5.90;99.90
22558;DHT22;11445;53.816;8.902;2024-03-02T03:40:55;5.90;99.90
22558;DHT22;11445;53.816;8.902;2024-03-02T03:43:22;5.90;99.90
22558;DHT22;11445;53.816;8.902;2024-03-02T03:45:49;5.80;99.90
22558;DHT22;11445;53.816;8.902;2024-03-02T03:48:17;5.90;99.90
22558;DHT22;11445;53.816;8.902;2024-03-02T03:50:44;5.90;99.90
22558;DHT22;11445;53.816;8.902;2024-03-02T03:53:11;5.90;99.90
22558;DHT22;11445;53.816;8.902;2024-03-02T03:55:37;5.80;99.90
22558;DHT22;11445;53.816;8.902;2024-03-02T03:58:04;5.80;99.90
22558;DHT22;11445;53.816;8.902;2024-03-02T04:00:31;5.80;99.90
22558;DHT22;11445;53.816;8.902;2024-03-02T04:02:58;5.80;99.90
22558;DHT22;11445;53.816;8.902;2024-03-02T04:05:26;5.80;99.90
22558;DHT22;11445;53.816;8.902;2024-03-02T04:07:53;5.80;99.90
22558;DHT22;11445;53.816;8.902;2024-03-02T04:10:20;5.80;99.90
22558;DHT22;11445;53.816;8.902;2024-03-02T04:12:47;5.80;99.90
22558;DHT22;11445;53.816;8.902;2024-03-02T04:15:13;5.80;99.90
22558;DHT22;11445;53.816;8.902;2024-03-02T04:17:40;5.80;99.90
22558;DHT22;11445;53.816;8.902;2024-03-02T04:20:08;5.80;99.90
22558;DHT22;11445;53.816;8.902;2024-03-02T04:22:36;5.80;99.90
22558;DHT22;11445;53.816;8.902;2024-03-02T04:25:03;5.80;99.90
22558;DHT22;11445;53.816;8.902;2024-03-02T04:27:32;5.80;99.90
22558;DHT22;11445;53.816;8.902;2024-03-02T04:29:59;5.80;99.90
22558;DHT22;11445;53.816;8.902;2024-03-02T04:32:26;5.80;99.90
22558;DHT22;11445;53.816;8.902;2024-03-02T04:34:53;5.80;99.90
22558;DHT22;11445;53.816;8.902;2024-03-02T04:37:20;5.80;99.90
22558;DHT22;11445;53.816;8.902;2024-03-02T04:39:48;5.80;99.90
22558;DHT22;11445;53.816;8.902;2024-03-02T04:42:15;5.70;99.90
22558;DHT22;11445;53.816;8.902;2024-03-02T04:44:42;5.70;99.90
22558;DHT22;11445;53.816;8.902;2024-03-02T04:47:09;5.70;99.90
22558;DHT22;11445;53.816;8.902;2024-03-02T04:49:36;5.70;99.90
22558;DHT22;11445;53.816;8.902;2024-03-02T04:52:03;5.70;99.90
22558;DHT22;11445;53.816;8.902;2024-03-02T04:54:30;5.70;99.90
22558;DHT22;11445;53.816;8.902;2024-03-02T04:56:58;5.70;99.90
22558;DHT22;11445;53.816;8.902;2024-03-02T04:59:25;5.70;99.90
22558;DHT22;11445;53.816;8.902;2024-03-02T05:01:52;5.70;99.90
22558;DHT22;11445;53.816;8.902;2024-03-02T05:04:18;5.70;99.90
22558;DHT22;11445;53.816;8.902;2024-03-02T05:06:45;5.70;99.90
22558;DHT22;11445;53.816;8.902;2024-03-02T05:09:17;5.70;99.90
22558;DHT22;11445;53.816;8.902;2024-03-02T05:11:44;5.70;99.90
22558;DHT22;11445;53.816;8.902;2024-03-02T05:14:37;5.70;99.90
22558;DHT22;11445;53.816;8.902;2024-03-02T05:17:04;5.70;99.90
22558;DHT22;11445;53.816;8.902;2024-03-02T05:19:31;5.70;99.90
22558;DHT22;11445;53.816;8.902;2024-03-02T05:21:58;5.70;99.90
22558;DHT22;11445;53.816;8.902;2024-03-02T05:24:25;5.70;99.90
22558;DHT22;11445;53.816;8.902;2024-03-02T05:26:53;5.70;99.90
22558;DHT22;11445;53.816;8.902;2024-03-02T05:29:20;5.70;99.90
22558;DHT22;11445;53.816;8.902;2024-03-02T05:31:48;5.80;99.90
22558;DHT22;11445;53.816;8.902;2024-03-02T05:34:15;5.80;99.90
22558;DHT22;11445;53.816;8.902;2024-03-02T05:36:42;5.80;99.90
22558;DHT22;11445;53.816;8.902;2024-03-02T05:39:09;5.90;99.90
22558;DHT22;11445;53.816;8.902;2024-03-02T05:41:36;5.90;99.90
22558;DHT22;11445;53.816;8.902;2024-03-02T05:44:03;5.90;99.90
22558;DHT22;11445;53.816;8.902;2024-03-02T05:46:30;5.90;99.90
22558;DHT22;11445;53.816;8.902;2024-03-02T05:48:59;5.90;99.90
22558;DHT22;11445;53.816;8.902;2024-03-02T05:51:26;5.90;99.90
22558;DHT22;11445;53.816;8.902;2024-03-02T05:53:52;5.90;99.90
22558;DHT22;11445;53.816;8.902;2024-03-02T05:56:19;5.90;99.90
22558;DHT22;11445;53.816;8.902;2024-03-02T05:58:46;6.00;99.90
22558;DHT22;11445;53.816;8.902;2024-03-02T06:01:23;5.90;99.90
22558;DHT22;11445;53.816;8.902;2024-03-02T06:03:54;5.90;99.90
22558;DHT22;11445;53.816;8.902;2024-03-02T06:06:23;6.00;99.90
22558;DHT22;11445;53.816;8.902;2024-03-02T06:08:49;5.90;99.90
22558;DHT22;11445;53.816;8.902;2024-03-02T06:11:16;5.90;99.90
22558;DHT22;11445;53.816;8.902;2024-03-02T06:13:43;5.90;99.90
22558;DHT22;11445;53.816;8.902;2024-03-02T06:16:10;5.90;99.90
22558;DHT22;11445;53.816;8.902;2024-03-02T06:18:37;5.90;99.90
22558;DHT22;11445;53.816;8.902;2024-03-02T06:21:04;5.90;99.90
22558;DHT22;11445;53.816;8.902;2024-03-02T06:23:32;5.90;99.90
22558;DHT22;11445;53.816;8.902;2024-03-02T06:26:00;5.90;99.90
22558;DHT22;11445;53.816;8.902;2024-03-02T06:28:27;5.90;99.90
22558;DHT22;11445;53.816;8.902;2024-03-02T06:30:54;5.90;99.90
22558;DHT22;11445;53.816;8.902;2024-03-02T06:33:21;6.00;99.90
22558;DHT22;11445;53.816;8.902;2024-03-02T06:35:48;6.00;99.90
22558;DHT22;11445;53.816;8.902;2024-03-02T06:38:15;6.00;99.90
22558;DHT22;11445;53.816;8.902;2024-03-02T06:40:43;6.10;99.90
22558;DHT22;11445;53.816;8.902;2024-03-02T06:43:10;6.10;99.90
22558;DHT22;11445;53.816;8.902;2024-03-02T06:45:37;6.10;99.90
22558;DHT22;11445;53.816;8.902;2024-03-02T06:48:05;6.20;99.90
22558;DHT22;11445;53.816;8.902;2024-03-02T06:50:32;6.20;99.90
22558;DHT22;11445;53.816;8.902;2024-03-02T06:52:58;6.30;99.90
22558;DHT22;11445;53.816;8.902;2024-03-02T06:55:25;6.30;99.90
22558;DHT22;11445;53.816;8.902;2024-03-02T06:57:53;6.40;99.90
22558;DHT22;11445;53.816;8.902;2024-03-02T07:00:20;6.40;99.90
22558;DHT22;11445;53.816;8.902;2024-03-02T07:02:47;6.40;99.90
22558;DHT22;11445;53.816;8.902;2024-03-02T07:05:15;6.50;99.90
22558;DHT22;11445;53.816;8.902;2024-03-02T07:07:42;6.50;99.90
22558;DHT22;11445;53.816;8.902;2024-03-02T07:10:09;6.50;99.90
22558;DHT22;11445;53.816;8.902;2024-03-02T07:12:35;6.60;99.90
22558;DHT22;11445;53.816;8.902;2024-03-02T07:15:05;6.60;99.90
22558;DHT22;11445;53.816;8.902;2024-03-02T07:17:50;6.70;99.90
22558;DHT22;11445;53.816;8.902;2024-03-02T07:20:17;6.70;99.90
22558;DHT22;11445;53.816;8.902;2024-03-02T07:22:44;6.70;99.90
22558;DHT22;11445;53.816;8.902;2024-03-02T07:25:11;6.80;99.90
22558;DHT22;11445;53.816;8.902;2024-03-02T07:27:38;6.80;99.90
22558;DHT22;11445;53.816;8.902;2024-03-02T07:30:07;6.90;99.90
22558;DHT22;11445;53.816;8.902;2024-03-02T07:32:34;6.90;99.90
22558;DHT22;11445;53.816;8.902;2024-03-02T07:35:00;7.00;99.90
22558;DHT22;11445;53.816;8.902;2024-03-02T07:37:29;7.10;99.90
22558;DHT22;11445;53.816;8.902;2024-03-02T07:39:56;7.10;99.90
22558;DHT22;11445;53.816;8.902;2024-03-02T07:42:23;7.20;99.90
22558;DHT22;11445;53.816;8.902;2024-03-02T07:44:50;7.20;99.90
22558;DHT22;11445;53.816;8.902;2024-03-02T07:47:18;7.30;99.90
22558;DHT22;11445;53.816;8.902;2024-03-02T07:49:45;7.30;99.90
22558;DHT22;11445;53.816;8.902;2024-03-02T07:52:12;7.40;99.90
22558;DHT22;11445;53.816;8.902;2024-03-02T07:54:39;7.40;99.90
22558;DHT22;11445;53.816;8.902;2024-03-02T07:57:06;7.40;99.90
22558;DHT22;11445;53.816;8.902;2024-03-02T07:59:34;7.40;99.90
22558;DHT22;11445;53.816;8.902;2024-03-02T08:02:01;7.40;99.90
22558;DHT22;11445;53.816;8.902;2024-03-02T08:04:29;7.50;99.90
22558;DHT22;11445;53.816;8.902;2024-03-02T08:06:56;7.50;99.90
22558;DHT22;11445;53.816;8.902;2024-03-02T08:09:22;7.60;99.90
22558;DHT22;11445;53.816;8.902;2024-03-02T08:11:49;7.60;99.90
22558;DHT22;11445;53.816;8.902;2024-03-02T08:14:16;7.60;99.90
22558;DHT22;11445;53.816;8.902;2024-03-02T08:16:43;7.70;99.90
22558;DHT22;11445;53.816;8.902;2024-03-02T08:19:10;7.70;99.90
22558;DHT22;11445;53.816;8.902;2024-03-02T08:21:38;7.80;99.90
22558;DHT22;11445;53.816;8.902;2024-03-02T08:24:06;7.80;99.90
22558;DHT22;11445;53.816;8.902;2024-03-02T08:26:33;7.80;99.90
22558;DHT22;11445;53.816;8.902;2024-03-02T08:29:01;7.80;99.90
22558;DHT22;11445;53.816;8.902;2024-03-02T08:31:29;7.80;99.90
22558;DHT22;11445;53.816;8.902;2024-03-02T08:33:55;7.90;99.90
22558;DHT22;11445;53.816;8.902;2024-03-02T08:36:24;7.90;99.90
22558;DHT22;11445;53.816;8.902;2024-03-02T08:38:52;7.90;99.90
22558;DHT22;11445;53.816;8.902;2024-03-02T08:41:19;8.00;99.90
22558;DHT22;11445;53.816;8.902;2024-03-02T08:43:46;8.00;99.90
22558;DHT22;11445;53.816;8.902;2024-03-02T08:46:13;8.10;99.90
22558;DHT22;11445;53.816;8.902;2024-03-02T08:48:40;8.10;99.90
22558;DHT22;11445;53.816;8.902;2024-03-02T08:51:07;8.10;99.90
22558;DHT22;11445;53.816;8.902;2024-03-02T08:53:35;8.20;99.90
22558;DHT22;11445;53.816;8.902;2024-03-02T08:56:05;8.20;99.90
22558;DHT22;11445;53.816;8.902;2024-03-02T08:58:32;8.20;99.90
22558;DHT22;11445;53.816;8.902;2024-03-02T09:00:59;8.20;99.90
22558;DHT22;11445;53.816;8.902;2024-03-02T09:03:26;8.30;99.90
22558;DHT22;11445;53.816;8.902;2024-03-02T09:05:52;8.30;99.90
22558;DHT22;11445;53.816;8.902;2024-03-02T09:08:19;8.60;99.90
22558;DHT22;11445;53.816;8.902;2024-03-02T09:10:46;8.60;99.90
22558;DHT22;11445;53.816;8.902;2024-03-02T09:13:14;8.70;99.90
22558;DHT22;11445;53.816;8.902;2024-03-02T09:15:41;8.70;99.90
22558;DHT22;11445;53.816;8.902;2024-03-02T09:18:09;8.60;99.90
22558;DHT22;11445;53.816;8.902;2024-03-02T09:20:36;8.60;99.90
22558;DHT22;11445;53.816;8.902;2024-03-02T09:23:03;8.60;99.90
22558;DHT22;11445;53.816;8.902;2024-03-02T09:25:30;8.60;99.90
22558;DHT22;11445;53.816;8.902;2024-03-02T09:27:57;8.60;99.90
22558;DHT22;11445;53.816;8.902;2024-03-02T09:30:25;8.60;99.90
22558;DHT22;11445;53.816;8.902;2024-03-02T09:32:52;8.60;99.90
22558;DHT22;11445;53.816;8.902;2024-03-02T09:35:18;8.70;99.90
22558;DHT22;11445;53.816;8.902;2024-03-02T09:37:45;8.70;99.90
22558;DHT22;11445;53.816;8.902;2024-03-02T09:40:13;8.70;99.90
22558;DHT22;11445;53.816;8.902;2024-03-02T09:42:45;8.70;99.90
22558;DHT22;11445;53.816;8.902;2024-03-02T09:45:17;8.80;99.90
22558;DHT22;11445;53.816;8.902;2024-03-02T09:47:46;8.80;99.90
22558;DHT22;11445;53.816;8.902;2024-03-02T09:50:13;8.80;99.90
22558;DHT22;11445;53.816;8.902;2024-03-02T09:52:41;8.90;99.90
22558;DHT22;11445;53.816;8.902;2024-03-02T09:55:08;8.90;99.90
22558;DHT22;11445;53.816;8.902;2024-03-02T09:57:35;8.90;99.90
22558;DHT22;11445;53.816;8.902;2024-03-02T10:00:03;9.00;99.90
22558;DHT22;11445;53.816;8.902;2024-03-02T10:02:30;9.00;99.90
22558;DHT22;11445;53.816;8.902;2024-03-02T10:04:58;9.10;99.90
22558;DHT22;11445;53.816;8.902;2024-03-02T10:07:25;9.10;99.90
22558;DHT22;11445;53.816;8.902;2024-03-02T10:09:52;9.20;99.90
22558;DHT22;11445;53.816;8.902;2024-03-02T10:12:19;9.20;99.90
22558;DHT22;11445;53.816;8.902;2024-03-02T10:14:47;9.30;99.90
22558;DHT22;11445;53.816;8.902;2024-03-02T10:17:17;9.30;99.90
22558;DHT22;11445;53.816;8.902;2024-03-02T10:19:44;9.30;99.90
22558;DHT22;11445;53.816;8.902;2024-03-02T10:22:12;9.50;99.90
22558;DHT22;11445;53.816;8.902;2024-03-02T10:24:41;9.80;99.90
22558;DHT22;11445;53.816;8.902;2024-03-02T10:27:10;9.90;99.90
22558;DHT22;11445;53.816;8.902;2024-03-02T10:29:40;9.90;99.90
22558;DHT22;11445;53.816;8.902;2024-03-02T10:32:10;9.90;99.90
22558;DHT22;11445;53.816;8.902;2024-03-02T10:34:39;9.90;99.90
22558;DHT22;11445;53.816;8.902;2024-03-02T10:37:07;10.00;99.90
22558;DHT22;11445;53.816;8.902;2024-03-02T10:39:35;10.00;99.90
22558;DHT22;11445;53.816;8.902;2024-03-02T10:42:03;10.00;99.90
22558;DHT22;11445;53.816;8.902;2024-03-02T10:44:32;10.10;99.90
22558;DHT22;11445;53.816;8.902;2024-03-02T10:47:01;10.10;99.90
22558;DHT22;11445;53.816;8.902;2024-03-02T10:49:29;10.10;99.90
22558;DHT22;11445;53.816;8.902;2024-03-02T10:51:57;10.20;99.90
22558;DHT22;11445;53.816;8.902;2024-03-02T10:54:24;10.10;99.90
22558;DHT22;11445;53.816;8.902;2024-03-02T10:56:58;10.10;99.90
22558;DHT22;11445;53.816;8.902;2024-03-02T10:59:28;10.20;99.90
22558;DHT22;11445;53.816;8.902;2024-03-02T11:01:57;10.20;99.90
22558;DHT22;11445;53.816;8.902;2024-03-02T11:04:26;10.20;99.90
22558;DHT22;11445;53.816;8.902;2024-03-02T11:06:58;10.20;99.90
22558;DHT22;11445;53.816;8.902;2024-03-02T11:09:27;10.30;99.90
22558;DHT22;11445;53.816;8.902;2024-03-02T11:12:00;10.30;99.90
22558;DHT22;11445;53.816;8.902;2024-03-02T11:14:30;10.30;99.90
22558;DHT22;11445;53.816;8.902;2024-03-02T11:16:58;10.30;99.90
22558;DHT22;11445;53.816;8.902;2024-03-02T11:19:25;10.40;99.90
22558;DHT22;11445;53.816;8.902;2024-03-02T11:21:55;10.40;99.90
22558;DHT22;11445;53.816;8.902;2024-03-02T11:24:29;10.40;99.90
22558;DHT22;11445;53.816;8.902;2024-03-02T11:27:00;10.40;99.90
22558;DHT22;11445;53.816;8.902;2024-03-02T11:29:46;10.50;99.90
22558;DHT22;11445;53.816;8.902;2024-03-02T11:32:16;10.50;99.90
22558;DHT22;11445;53.816;8.902;2024-03-02T11:34:45;10.50;99.90
22558;DHT22;11445;53.816;8.902;2024-03-02T11:37:14;10.60;99.90
22558;DHT22;11445;53.816;8.902;2024-03-02T11:39:43;10.60;99.90
22558;DHT22;11445;53.816;8.902;2024-03-02T11:42:12;10.60;99.90
22558;DHT22;11445;53.816;8.902;2024-03-02T11:44:42;10.70;99.90
22558;DHT22;11445;53.816;8.902;2024-03-02T11:47:12;10.70;99.90
22558;DHT22;11445;53.816;8.902;2024-03-02T11:49:42;10.70;99.90
22558;DHT22;11445;53.816;8.902;2024-03-02T11:52:11;10.70;99.90
22558;DHT22;11445;53.816;8.902;2024-03-02T11:54:39;10.80;99.90
22558;DHT22;11445;53.816;8.902;2024-03-02T11:57:14;11.00;99.90
22558;DHT22;11445;53.816;8.902;2024-03-02T11:59:41;11.00;99.90
22558;DHT22;11445;53.816;8.902;2024-03-02T12:02:15;11.10;99.90
22558;DHT22;11445;53.816;8.902;2024-03-02T12:04:43;11.10;99.90
22558;DHT22;11445;53.816;8.902;2024-03-02T12:07:10;11.10;99.90
22558;DHT22;11445;53.816;8.902;2024-03-02T12:09:37;11.10;99.90
22558;DHT22;11445;53.816;8.902;2024-03-02T12:12:05;11.10;99.90
22558;DHT22;11445;53.816;8.902;2024-03-02T12:14:35;11.20;99.90
22558;DHT22;11445;53.816;8.902;2024-03-02T12:17:02;11.30;99.90
22558;DHT22;11445;53.816;8.902;2024-03-02T12:19:30;11.40;99.90
22558;DHT22;11445;53.816;8.902;2024-03-02T12:21:57;11.40;99.90
22558;DHT22;11445;53.816;8.902;2024-03-02T12:24:26;11.50;99.90
22558;DHT22;11445;53.816;8.902;2024-03-02T12:26:53;11.50;99.90
22558;DHT22;11445;53.816;8.902;2024-03-02T12:29:21;11.50;99.90
22558;DHT22;11445;53.816;8.902;2024-03-02T12:31:50;11.50;99.90
22558;DHT22;11445;53.816;8.902;2024-03-02T12:34:18;11.60;99.90
22558;DHT22;11445;53.816;8.902;2024-03-02T12:36:45;11.50;99.90
22558;DHT22;11445;53.816;8.902;2024-03-02T12:39:15;11.50;99.90
22558;DHT22;11445;53.816;8.902;2024-03-02T12:41:42;11.50;99.90
22558;DHT22;11445;53.816;8.902;2024-03-02T12:44:09;11.50;99.90
22558;DHT22;11445;53.816;8.902;2024-03-02T12:46:36;11.50;99.90
22558;DHT22;11445;53.816;8.902;2024-03-02T12:49:08;11.50;99.90
22558;DHT22;11445;53.816;8.902;2024-03-02T12:51:35;11.50;99.90
22558;DHT22;11445;53.816;8.902;2024-03-02T12:54:03;11.60;99.90
22558;DHT22;11445;53.816;8.902;2024-03-02T12:56:31;11.60;99.90
22558;DHT22;11445;53.816;8.902;2024-03-02T12:58:58;11.60;99.90
22558;DHT22;11445;53.816;8.902;2024-03-02T13:01:25;11.60;99.90
22558;DHT22;11445;53.816;8.902;2024-03-02T13:03:53;11.70;99.90
22558;DHT22;11445;53.816;8.902;2024-03-02T13:06:22;11.70;99.90
22558;DHT22;11445;53.816;8.902;2024-03-02T13:08:49;11.80;99.90
22558;DHT22;11445;53.816;8.902;2024-03-02T13:11:16;11.80;99.90
22558;DHT22;11445;53.816;8.902;2024-03-02T13:13:43;11.80;99.90
22558;DHT22;11445;53.816;8.902;2024-03-02T13:16:11;11.90;99.90
22558;DHT22;11445;53.816;8.902;2024-03-02T13:18:38;11.90;99.90
22558;DHT22;11445;53.816;8.902;2024-03-02T13:21:06;12.00;99.90
22558;DHT22;11445;53.816;8.902;2024-03-02T13:23:35;11.90;99.90
22558;DHT22;11445;53.816;8.902;2024-03-02T13:26:02;11.90;99.90
22558;DHT22;11445;53.816;8.902;2024-03-02T13:28:30;11.90;99.90
22558;DHT22;11445;53.816;8.902;2024-03-02T13:30:56;11.90;99.90
22558;DHT22;11445;53.816;8.902;2024-03-02T13:33:23;12.00;99.90
22558;DHT22;11445;53.816;8.902;2024-03-02T13:35:50;12.00;99.90
22558;DHT22;11445;53.816;8.902;2024-03-02T13:38:18;11.90;99.90
22558;DHT22;11445;53.816;8.902;2024-03-02T13:40:49;11.90;99.90
22558;DHT22;11445;53.816;8.902;2024-03-02T13:43:17;11.90;99.90
22558;DHT22;11445;53.816;8.902;2024-03-02T13:45:44;11.90;99.90
22558;DHT22;11445;53.816;8.902;2024-03-02T13:48:11;11.90;99.90
22558;DHT22;11445;53.816;8.902;2024-03-02T13:50:38;11.90;99.90
22558;DHT22;11445;53.816;8.902;2024-03-02T13:53:05;11.90;99.90
22558;DHT22;11445;53.816;8.902;2024-03-02T13:55:32;11.90;99.90
22558;DHT22;11445;53.816;8.902;2024-03-02T13:58:01;12.00;99.90
22558;DHT22;11445;53.816;8.902;2024-03-02T14:00:27;12.10;99.90
22558;DHT22;11445;53.816;8.902;2024-03-02T14:02:55;12.10;99.90
22558;DHT22;11445;53.816;8.902;2024-03-02T14:05:22;12.40;99.90
22558;DHT22;11445;53.816;8.902;2024-03-02T14:07:48;12.40;99.90
22558;DHT22;11445;53.816;8.902;2024-03-02T14:10:15;12.40;99.90
22558;DHT22;11445;53.816;8.902;2024-03-02T14:12:43;12.40;99.90
22558;DHT22;11445;53.816;8.902;2024-03-02T14:15:11;12.40;99.90
22558;DHT22;11445;53.816;8.902;2024-03-02T14:17:39;12.30;99.90
22558;DHT22;11445;53.816;8.902;2024-03-02T14:20:07;12.30;99.90
22558;DHT22;11445;53.816;8.902;2024-03-02T14:22:35;12.30;99.90
22558;DHT22;11445;53.816;8.902;2024-03-02T14:25:03;12.20;99.90
22558;DHT22;11445;53.816;8.902;2024-03-02T14:27:30;12.20;99.90
22558;DHT22;11445;53.816;8.902;2024-03-02T14:29:57;12.20;99.90
22558;DHT22;11445;53.816;8.902;2024-03-02T14:32:25;12.20;99.90
22558;DHT22;11445;53.816;8.902;2024-03-02T14:34:52;12.20;99.90
22558;DHT22;11445;53.816;8.902;2024-03-02T14:37:19;12.20;99.90
22558;DHT22;11445;53.816;8.902;2024-03-02T14:39:47;12.20;99.90
22558;DHT22;11445;53.816;8.902;2024-03-02T14:42:14;12.20;99.90
22558;DHT22;11445;53.816;8.902;2024-03-02T14:44:40;12.20;99.90
22558;DHT22;11445;53.816;8.902;2024-03-02T14:47:08;12.20;99.90
22558;DHT22;11445;53.816;8.902;2024-03-02T14:49:36;12.20;99.90
22558;DHT22;11445;53.816;8.902;2024-03-02T14:52:06;12.20;99.90
22558;DHT22;11445;53.816;8.902;2024-03-02T14:54:34;12.10;99.90
22558;DHT22;11445;53.816;8.902;2024-03-02T14:57:01;12.10;99.90
22558;DHT22;11445;53.816;8.902;2024-03-02T14:59:28;12.10;99.90
22558;DHT22;11445;53.816;8.902;2024-03-02T15:01:55;12.10;99.90
22558;DHT22;11445;53.816;8.902;2024-03-02T15:04:23;12.20;99.90
22558;DHT22;11445;53.816;8.902;2024-03-02T15:06:51;12.10;99.90
22558;DHT22;11445;53.816;8.902;2024-03-02T15:09:18;12.10;99.90
22558;DHT22;11445;53.816;8.902;2024-03-02T15:11:45;12.10;99.90
22558;DHT22;11445;53.816;8.902;2024-03-02T15:14:12;12.10;99.90
22558;DHT22;11445;53.816;8.902;2024-03-02T15:16:40;12.10;99.90
22558;DHT22;11445;53.816;8.902;2024-03-02T15:19:07;12.10;99.90
22558;DHT22;11445;53.816;8.902;2024-03-02T15:21:34;12.10;99.90
22558;DHT22;11445;53.816;8.902;2024-03-02T15:24:03;12.10;99.90
22558;DHT22;11445;53.816;8.902;2024-03-02T15:26:30;12.10;99.90
22558;DHT22;11445;53.816;8.902;2024-03-02T15:28:57;12.10;99.90
22558;DHT22;11445;53.816;8.902;2024-03-02T15:31:24;12.10;99.90
22558;DHT22;11445;53.816;8.902;2024-03-02T15:33:51;12.10;99.90
22558;DHT22;11445;53.816;8.902;2024-03-02T15:36:18;12.10;99.90
22558;DHT22;11445;53.816;8.902;2024-03-02T15:38:45;12.20;99.90
22558;DHT22;11445;53.816;8.902;2024-03-02T15:41:14;12.30;99.90
22558;DHT22;11445;53.816;8.902;2024-03-02T15:43:41;12.40;99.90
22558;DHT22;11445;53.816;8.902;2024-03-02T15:46:08;12.50;99.90